Time;durP1;ratioP1;P1;durP2;ratioP2;P2;SDS_P1;SDS_P2;PMS_P1;PMS_P2;Temp;Humidity;BMP_temperature;BMP_pressure;BME280_temperature;BME280_humidity;BME280_pressure;Samples;Min_cycle;Max_cycle;Signal;HPM_P1;HPM_P2
2023/12/11 00:01:45;;;;;;;7.05;3.30;;;18.90;48.60;;;;;;5014150;28;20288;-80
2023/12/11 00:04:12;;;;;;;5.65;3.08;;;18.90;48.60;;;;;;5014324;28;20299;-81
2023/12/11 00:06:41;;;;;;;6.03;3.10;;;18.90;48.50;;;;;;5013884;28;20232;-81
2023/12/11 00:09:08;;;;;;;5.18;3.10;;;18.90;48.70;;;;;;5013974;28;20201;-81
2023/12/11 00:11:35;;;;;;;5.25;2.88;;;18.90;48.60;;;;;;5014442;28;20563;-81
2023/12/11 00:14:02;;;;;;;5.68;3.08;;;18.90;49.20;;;;;;5014138;28;20251;-80
2023/12/11 00:16:29;;;;;;;4.85;2.97;;;18.90;48.70;;;;;;5014182;28;20263;-81
2023/12/11 00:18:56;;;;;;;4.57;2.45;;;18.80;48.80;;;;;;5013833;28;20607;-80
2023/12/11 00:21:23;;;;;;;5.07;2.97;;;18.80;48.70;;;;;;5013636;28;20205;-81
2023/12/11 00:23:53;;;;;;;4.35;2.88;;;18.80;48.70;;;;;;5013423;28;20629;-81
2023/12/11 00:26:20;;;;;;;5.40;2.92;;;18.80;48.70;;;;;;5014051;28;20323;-79
2023/12/11 00:28:48;;;;;;;5.55;3.10;;;18.80;48.90;;;;;;5014047;28;20193;-79
2023/12/11 00:31:15;;;;;;;6.50;3.00;;;18.80;48.70;;;;;;5013623;28;20208;-79
2023/12/11 00:33:42;;;;;;;4.72;2.63;;;18.80;48.80;;;;;;5013685;28;20205;-79
2023/12/11 00:36:10;;;;;;;4.75;2.78;;;18.70;48.80;;;;;;5013583;28;20223;-79
2023/12/11 00:38:37;;;;;;;3.83;2.55;;;18.70;48.70;;;;;;5013157;28;20203;-79
2023/12/11 00:41:07;;;;;;;6.28;3.00;;;18.70;48.80;;;;;;5013139;28;20670;-79
2023/12/11 00:43:34;;;;;;;4.95;2.58;;;18.70;48.80;;;;;;5013047;28;20196;-79
2023/12/11 00:46:01;;;;;;;4.10;2.53;;;18.70;48.90;;;;;;4997011;28;20267;-79
2023/12/11 00:48:28;;;;;;;4.57;2.20;;;18.70;49.00;;;;;;5013713;28;20251;-79
2023/12/11 00:50:56;;;;;;;4.43;2.35;;;18.60;49.00;;;;;;5013921;28;20250;-79
2023/12/11 00:53:23;;;;;;;3.63;2.40;;;18.60;49.10;;;;;;5013571;28;20198;-79
2023/12/11 00:55:50;;;;;;;5.45;2.88;;;18.60;48.90;;;;;;5013328;28;20220;-79
2023/12/11 00:58:19;;;;;;;3.83;2.17;;;18.60;49.10;;;;;;5014471;28;20292;-79
2023/12/11 01:00:46;;;;;;;4.50;2.42;;;18.60;49.10;;;;;;5009756;28;20235;-79
2023/12/11 01:03:13;;;;;;;5.10;2.50;;;18.60;49.10;;;;;;5018006;28;20200;-82
2023/12/11 01:05:41;;;;;;;3.85;2.22;;;18.60;49.10;;;;;;5015140;28;20201;-79
2023/12/11 01:08:08;;;;;;;4.68;2.40;;;18.50;49.00;;;;;;5018972;28;20212;-79
2023/12/11 01:10:35;;;;;;;4.05;2.40;;;18.50;49.00;;;;;;5037482;28;20188;-80
2023/12/11 01:13:03;;;;;;;4.65;2.65;;;18.50;49.00;;;;;;5038298;28;20181;-80
2023/12/11 01:15:31;;;;;;;4.03;2.08;;;18.50;49.00;;;;;;5036012;23;20272;-82
2023/12/11 01:17:58;;;;;;;4.57;2.38;;;18.50;49.00;;;;;;5038004;28;20169;-82
2023/12/11 01:20:26;;;;;;;4.65;2.63;;;18.50;49.00;;;;;;5024595;28;20286;-82
2023/12/11 01:22:53;;;;;;;3.53;2.13;;;18.50;49.00;;;;;;5014251;28;20197;-82
2023/12/11 01:25:20;;;;;;;3.90;2.30;;;18.50;49.60;;;;;;5013767;28;20219;-82
2023/12/11 01:27:47;;;;;;;3.90;2.35;;;18.50;49.00;;;;;;5017288;28;20212;-82
2023/12/11 01:30:14;;;;;;;4.63;2.00;;;18.50;49.60;;;;;;5017803;28;20193;-82
2023/12/11 01:32:42;;;;;;;3.80;2.25;;;18.40;49.00;;;;;;5017890;28;20201;-82
2023/12/11 01:35:10;;;;;;;2.90;2.10;;;18.40;49.00;;;;;;5017468;28;20622;-82
2023/12/11 01:37:37;;;;;;;3.90;2.40;;;18.40;49.00;;;;;;5017172;28;20271;-82
2023/12/11 01:40:05;;;;;;;3.08;2.35;;;18.40;49.00;;;;;;5017413;28;20201;-82
2023/12/11 01:42:33;;;;;;;3.53;2.20;;;18.40;49.00;;;;;;5017926;28;20197;-83
2023/12/11 01:45:00;;;;;;;3.38;2.13;;;18.40;49.00;;;;;;5005635;28;20730;-83
2023/12/11 01:47:27;;;;;;;4.25;2.28;;;18.40;49.10;;;;;;5019920;28;20242;-83
2023/12/11 01:49:56;;;;;;;2.92;2.00;;;18.40;49.20;;;;;;5019784;28;20636;-83
2023/12/11 01:52:23;;;;;;;3.00;1.80;;;18.40;49.00;;;;;;5020224;28;20200;-83
2023/12/11 01:54:50;;;;;;;4.85;1.90;;;18.40;49.10;;;;;;5020891;28;20200;-83
2023/12/11 01:57:17;;;;;;;4.60;2.15;;;18.40;49.20;;;;;;5019859;28;20227;-83
2023/12/11 01:59:44;;;;;;;3.47;2.40;;;18.40;49.20;;;;;;5020479;28;20204;-83
2023/12/11 02:02:12;;;;;;;3.08;2.00;;;18.40;49.20;;;;;;5017287;28;20221;-83
2023/12/11 02:04:39;;;;;;;3.45;2.10;;;18.40;49.10;;;;;;5022140;28;20197;-82
2023/12/11 02:07:07;;;;;;;2.47;1.80;;;18.40;49.20;;;;;;5019567;28;20316;-82
2023/12/11 02:09:34;;;;;;;4.25;1.90;;;18.40;49.20;;;;;;5020090;28;20207;-82
2023/12/11 02:12:02;;;;;;;3.28;2.17;;;18.30;49.20;;;;;;5020794;28;20255;-82
2023/12/11 02:14:29;;;;;;;3.47;2.00;;;18.30;49.80;;;;;;5020131;28;20201;-82
2023/12/11 02:16:56;;;;;;;4.35;2.17;;;18.30;49.20;;;;;;5018809;28;20216;-82
2023/12/11 02:19:23;;;;;;;2.72;1.75;;;18.30;49.20;;;;;;5022564;28;20193;-82
2023/12/11 02:21:50;;;;;;;3.40;2.05;;;18.30;49.20;;;;;;5027200;28;20292;-82
2023/12/11 02:24:21;;;;;;;1.92;1.60;;;18.30;49.30;;;;;;5016479;28;20201;-82
2023/12/11 02:26:50;;;;;;;3.15;1.83;;;18.30;49.30;;;;;;5016294;28;20312;-82
2023/12/11 02:29:17;;;;;;;3.75;2.10;;;18.30;49.30;;;;;;5016468;28;20295;-82
2023/12/11 02:31:44;;;;;;;2.75;1.85;;;18.30;49.90;;;;;;5016655;28;20275;-81
2023/12/11 02:34:12;;;;;;;2.85;1.75;;;18.30;49.40;;;;;;5016560;28;20197;-81
2023/12/11 02:36:39;;;;;;;3.47;2.05;;;18.30;50.00;;;;;;5016471;28;20245;-81
2023/12/11 02:39:06;;;;;;;2.25;1.77;;;18.30;49.40;;;;;;5015525;28;20564;-82
2023/12/11 02:41:33;;;;;;;3.17;2.00;;;18.30;49.40;;;;;;5016011;28;20270;-82
2023/12/11 02:44:01;;;;;;;2.10;1.73;;;18.30;49.40;;;;;;5015773;28;20201;-82
2023/12/11 02:46:28;;;;;;;3.15;1.90;;;18.30;49.40;;;;;;5015666;28;20675;-82
2023/12/11 02:48:55;;;;;;;2.72;1.60;;;18.20;49.30;;;;;;5015750;28;20248;-82
2023/12/11 02:51:22;;;;;;;2.05;1.80;;;18.30;49.40;;;;;;5015624;28;20201;-82
2023/12/11 02:53:49;;;;;;;2.97;1.70;;;18.30;49.40;;;;;;5015698;28;20201;-82
2023/12/11 02:56:16;;;;;;;2.45;1.60;;;18.30;49.50;;;;;;5015530;28;20279;-82
2023/12/11 02:58:44;;;;;;;2.88;1.60;;;18.20;49.40;;;;;;5015680;28;20569;-82
2023/12/11 03:01:12;;;;;;;2.35;1.90;;;18.20;49.40;;;;;;5014307;28;20255;-82
2023/12/11 03:03:39;;;;;;;3.13;1.80;;;18.20;49.40;;;;;;5014985;28;20228;-82
2023/12/11 03:06:08;;;;;;;2.25;1.45;;;18.20;49.50;;;;;;5015960;28;20319;-81
2023/12/11 03:08:37;;;;;;;2.15;1.65;;;18.20;49.50;;;;;;5015604;28;20196;-81
2023/12/11 03:11:05;;;;;;;2.83;1.70;;;18.20;49.60;;;;;;5015495;28;20208;-81
2023/12/11 03:13:32;;;;;;;2.35;1.60;;;18.10;49.50;;;;;;5015552;28;20291;-82
2023/12/11 03:15:59;;;;;;;2.45;1.60;;;18.20;49.60;;;;;;5016866;28;20236;-82
2023/12/11 03:18:28;;;;;;;2.22;1.60;;;18.20;49.60;;;;;;5020072;28;20236;-82
2023/12/11 03:20:55;;;;;;;2.22;1.50;;;18.20;49.70;;;;;;5017268;28;20663;-82
2023/12/11 03:23:22;;;;;;;1.80;1.50;;;18.20;49.70;;;;;;5017555;28;20734;-82
2023/12/11 03:25:49;;;;;;;2.28;1.67;;;18.20;49.60;;;;;;5017275;28;20725;-82
2023/12/11 03:28:16;;;;;;;2.72;1.60;;;18.10;49.60;;;;;;5017376;28;20207;-81
2023/12/11 03:30:44;;;;;;;2.10;1.42;;;18.10;49.60;;;;;;5017789;28;20205;-82
2023/12/11 03:33:11;;;;;;;2.00;1.50;;;18.20;49.60;;;;;;5017729;28;20296;-81
2023/12/11 03:35:39;;;;;;;2.25;1.40;;;18.10;49.60;;;;;;5017261;28;20201;-82
2023/12/11 03:38:06;;;;;;;2.40;1.50;;;18.10;49.60;;;;;;5016481;28;20624;-82
2023/12/11 03:40:34;;;;;;;1.83;1.50;;;18.10;49.70;;;;;;5015986;28;20268;-82
2023/12/11 03:43:01;;;;;;;2.45;1.48;;;18.10;49.60;;;;;;4999266;28;20255;-81
2023/12/11 03:45:29;;;;;;;3.38;1.90;;;18.10;49.70;;;;;;5014959;28;20208;-82
2023/12/11 03:47:55;;;;;;;2.00;1.55;;;18.10;49.80;;;;;;5015111;28;20311;-81
2023/12/11 03:50:22;;;;;;;2.28;1.38;;;18.10;49.70;;;;;;5014810;28;20199;-82
2023/12/11 03:52:51;;;;;;;2.45;1.33;;;18.00;49.70;;;;;;5014701;28;20232;-82
2023/12/11 03:55:18;;;;;;;1.77;1.35;;;18.10;49.70;;;;;;5014390;28;20207;-82
2023/12/11 03:57:45;;;;;;;2.08;1.38;;;18.00;49.70;;;;;;5014806;28;20216;-81
2023/12/11 04:00:14;;;;;;;2.53;1.50;;;18.00;49.70;;;;;;4998516;28;20211;-81
2023/12/11 04:02:41;;;;;;;1.70;1.40;;;18.00;49.70;;;;;;5010842;28;20282;-81
2023/12/11 04:05:09;;;;;;;2.30;1.40;;;18.00;49.70;;;;;;5014855;28;20224;-82
2023/12/11 04:07:36;;;;;;;1.40;1.30;;;18.00;49.80;;;;;;5016236;28;20271;-82
2023/12/11 04:10:05;;;;;;;2.30;1.30;;;18.00;49.80;;;;;;5014675;28;20208;-82
2023/12/11 04:12:33;;;;;;;1.27;1.17;;;18.00;49.80;;;;;;5016193;28;20193;-82
2023/12/11 04:15:00;;;;;;;1.80;1.30;;;18.00;49.70;;;;;;5014186;28;20263;-82
2023/12/11 04:17:27;;;;;;;1.50;1.30;;;17.90;49.70;;;;;;5014565;28;20217;-82
2023/12/11 04:19:55;;;;;;;1.75;1.25;;;17.90;49.90;;;;;;5015097;28;20200;-82
2023/12/11 04:22:22;;;;;;;1.52;1.40;;;17.90;50.00;;;;;;5014482;28;20208;-81
2023/12/11 04:24:49;;;;;;;1.52;1.20;;;17.80;49.90;;;;;;5014114;28;20201;-81
2023/12/11 04:27:17;;;;;;;1.48;1.33;;;17.80;49.90;;;;;;5013591;28;20224;-81
2023/12/11 04:29:44;;;;;;;2.10;1.10;;;17.80;49.90;;;;;;5013792;28;20542;-81
2023/12/11 04:32:11;;;;;;;1.60;1.10;;;17.90;49.90;;;;;;5014114;28;20296;-81
2023/12/11 04:34:38;;;;;;;1.50;1.40;;;17.90;49.90;;;;;;5014019;28;20208;-81
2023/12/11 04:37:05;;;;;;;1.35;1.23;;;17.90;49.90;;;;;;5009099;28;20220;-81
2023/12/11 04:39:32;;;;;;;1.83;1.30;;;17.90;49.90;;;;;;4992120;28;20670;-81
2023/12/11 04:41:59;;;;;;;1.98;1.40;;;17.90;49.70;;;;;;5013108;28;20262;-82
2023/12/11 04:44:28;;;;;;;1.83;1.38;;;17.90;49.70;;;;;;5015509;28;20197;-82
2023/12/11 04:46:56;;;;;;;2.13;1.35;;;17.90;49.70;;;;;;5014113;28;20302;-82
2023/12/11 04:49:23;;;;;;;2.00;1.23;;;18.00;49.70;;;;;;5013515;28;20200;-82
2023/12/11 04:51:50;;;;;;;1.42;1.23;;;18.00;49.70;;;;;;5013354;28;20204;-82
2023/12/11 04:54:17;;;;;;;1.67;1.20;;;18.00;49.70;;;;;;5013693;28;20193;-82
2023/12/11 04:56:44;;;;;;;1.75;1.20;;;18.00;49.70;;;;;;5013476;28;20582;-82
2023/12/11 04:59:11;;;;;;;2.50;1.30;;;18.00;49.60;;;;;;4997611;28;20228;-82
2023/12/11 05:01:40;;;;;;;1.05;0.88;;;18.00;49.50;;;;;;5015934;28;20304;-82
2023/12/11 05:04:07;;;;;;;1.60;1.08;;;18.00;49.50;;;;;;5013792;28;20227;-82
2023/12/11 05:06:35;;;;;;;1.35;1.25;;;18.10;49.60;;;;;;5017309;28;20314;-82
2023/12/11 05:09:02;;;;;;;1.05;0.90;;;18.00;49.30;;;;;;4997814;28;20242;-82
2023/12/11 05:11:29;;;;;;;2.05;1.42;;;18.00;49.30;;;;;;4997842;28;20197;-82
2023/12/11 05:13:56;;;;;;;1.65;0.93;;;18.00;49.20;;;;;;4998678;28;20205;-82
2023/12/11 05:16:24;;;;;;;2.28;1.10;;;18.00;49.10;;;;;;4997670;28;20363;-82
2023/12/11 05:18:53;;;;;;;1.20;1.10;;;18.00;49.10;;;;;;4998270;28;20620;-82
2023/12/11 05:21:19;;;;;;;1.90;0.95;;;18.00;49.00;;;;;;4999270;28;20205;-81
2023/12/11 05:23:47;;;;;;;1.88;1.10;;;18.00;49.10;;;;;;5002487;28;20205;-81
2023/12/11 05:26:19;;;;;;;1.33;1.00;;;18.00;49.00;;;;;;5011287;28;20224;-81
2023/12/11 05:28:47;;;;;;;1.25;0.95;;;18.00;49.00;;;;;;5022106;28;20205;-81
2023/12/11 05:31:14;;;;;;;1.48;1.00;;;18.00;49.80;;;;;;5022097;28;20169;-81
2023/12/11 05:33:41;;;;;;;1.25;1.00;;;18.00;49.10;;;;;;4990730;28;20572;-81
2023/12/11 05:36:11;;;;;;;1.27;1.10;;;18.00;49.20;;;;;;4997469;28;20216;-81
2023/12/11 05:38:38;;;;;;;0.70;0.70;;;18.00;49.10;;;;;;4997412;28;20675;-82
2023/12/11 05:41:05;;;;;;;0.85;0.75;;;18.00;48.90;;;;;;4997407;28;20208;-82
2023/12/11 05:43:32;;;;;;;1.20;0.80;;;18.00;48.70;;;;;;4999132;28;20190;-82
2023/12/11 05:46:00;;;;;;;1.35;1.00;;;18.10;48.70;;;;;;4982511;28;20579;-82
2023/12/11 05:48:27;;;;;;;1.17;0.88;;;18.10;49.30;;;;;;4997832;28;20316;-82
2023/12/11 05:50:54;;;;;;;1.35;1.10;;;18.10;48.70;;;;;;4996983;28;20201;-81
2023/12/11 05:53:22;;;;;;;0.60;0.60;;;18.10;48.70;;;;;;4997192;28;20296;-82
2023/12/11 05:55:49;;;;;;;1.77;0.98;;;18.10;48.50;;;;;;4997105;28;20311;-82
2023/12/11 05:58:17;;;;;;;2.30;0.88;;;18.10;48.70;;;;;;4981651;28;20544;-82
2023/12/11 06:00:44;;;;;;;1.40;0.85;;;18.20;48.60;;;;;;4996915;28;20251;-82
2023/12/11 06:03:11;;;;;;;1.10;1.00;;;18.20;48.80;;;;;;4996718;28;20226;-82
2023/12/11 06:05:38;;;;;;;1.10;0.90;;;18.20;48.70;;;;;;4996720;28;20655;-83
2023/12/11 06:08:06;;;;;;;1.38;0.95;;;18.10;48.50;;;;;;4986221;28;20221;-82
2023/12/11 06:10:35;;;;;;;1.17;1.00;;;18.20;48.50;;;;;;4981508;28;20260;-82
2023/12/11 06:13:02;;;;;;;1.38;0.93;;;18.20;48.70;;;;;;4997000;28;20201;-82
2023/12/11 06:15:29;;;;;;;0.90;0.90;;;18.20;48.30;;;;;;4996671;28;20209;-82
2023/12/11 06:17:56;;;;;;;0.82;0.80;;;18.20;48.30;;;;;;4997406;28;20288;-80
2023/12/11 06:20:23;;;;;;;1.05;0.95;;;18.20;48.30;;;;;;4997419;28;20201;-80
2023/12/11 06:22:51;;;;;;;1.05;0.90;;;18.20;48.80;;;;;;4996883;28;20209;-81
2023/12/11 06:25:18;;;;;;;1.45;1.15;;;18.20;48.40;;;;;;4997063;28;20215;-81
2023/12/11 06:27:46;;;;;;;1.40;1.10;;;18.20;48.30;;;;;;4998640;28;20328;-82
2023/12/11 06:30:15;;;;;;;2.50;1.00;;;18.20;48.30;;;;;;4998104;28;20202;-83
2023/12/11 06:32:42;;;;;;;1.30;1.00;;;18.20;49.00;;;;;;4997985;28;20204;-85
2023/12/11 06:35:09;;;;;;;1.38;1.23;;;18.20;48.30;;;;;;4990976;28;20205;-85
2023/12/11 06:37:36;;;;;;;1.08;1.00;;;18.20;48.40;;;;;;4979459;28;20214;-85
2023/12/11 06:40:04;;;;;;;0.90;0.90;;;18.20;48.30;;;;;;4996496;28;20220;-85
2023/12/11 06:42:34;;;;;;;1.20;1.08;;;18.10;48.30;;;;;;4996489;28;20197;-85
2023/12/11 06:45:03;;;;;;;1.10;1.02;;;18.10;48.30;;;;;;4996628;28;20201;-85
2023/12/11 06:47:30;;;;;;;1.00;0.90;;;18.10;48.20;;;;;;4998774;28;20225;-85
2023/12/11 06:49:57;;;;;;;3.08;1.15;;;18.10;48.50;;;;;;4998328;28;20221;-85
2023/12/11 06:52:25;;;;;;;1.48;0.90;;;18.20;48.40;;;;;;4998673;28;20204;-85
2023/12/11 06:54:52;;;;;;;1.00;0.80;;;18.20;48.60;;;;;;4998034;28;20236;-85
2023/12/11 06:57:19;;;;;;;1.08;0.98;;;18.10;48.50;;;;;;4997931;28;20210;-85
2023/12/11 06:59:46;;;;;;;0.90;0.90;;;18.10;48.50;;;;;;4999085;28;20201;-85
2023/12/11 07:02:15;;;;;;;1.25;0.95;;;18.10;48.30;;;;;;4997710;28;20205;-85
2023/12/11 07:04:42;;;;;;;2.17;0.85;;;18.10;48.50;;;;;;4997635;28;20197;-83
2023/12/11 07:07:10;;;;;;;0.90;0.80;;;18.20;48.40;;;;;;4997709;28;20225;-83
2023/12/11 07:09:39;;;;;;;0.80;0.80;;;18.20;48.40;;;;;;4983766;28;20285;-82
2023/12/11 07:12:08;;;;;;;1.15;1.02;;;18.20;48.50;;;;;;4996866;28;20202;-82
2023/12/11 07:14:35;;;;;;;1.02;0.90;;;18.30;48.60;;;;;;4981669;28;20544;-83
2023/12/11 07:17:02;;;;;;;0.85;0.80;;;18.20;48.10;;;;;;5104654;23;20228;-80
2023/12/11 07:19:31;;;;;;;0.68;0.68;;;18.30;48.30;;;;;;5014551;28;20200;-80
2023/12/11 07:21:59;;;;;;;2.38;1.08;;;18.30;48.40;;;;;;4998062;28;20259;-80
2023/12/11 07:24:26;;;;;;;1.40;0.70;;;18.30;48.30;;;;;;5013778;28;20244;-80
2023/12/11 07:26:53;;;;;;;1.00;0.73;;;18.30;48.50;;;;;;5014372;28;20220;-80
2023/12/11 07:29:20;;;;;;;0.90;0.80;;;18.40;47.90;;;;;;5014541;28;20327;-80
2023/12/11 07:31:47;;;;;;;0.98;0.63;;;18.40;47.90;;;;;;5014418;28;20284;-80
2023/12/11 07:34:15;;;;;;;1.35;0.93;;;18.30;48.00;;;;;;5014773;28;20311;-80
2023/12/11 07:36:44;;;;;;;1.27;1.17;;;18.30;47.90;;;;;;4997863;28;20589;-80
2023/12/11 07:39:11;;;;;;;0.93;0.85;;;18.40;48.00;;;;;;5014173;28;20229;-80
2023/12/11 07:41:38;;;;;;;0.88;0.80;;;18.30;47.90;;;;;;5014283;28;20798;-80
2023/12/11 07:44:07;;;;;;;0.80;0.80;;;18.30;47.90;;;;;;4998049;28;20292;-80
2023/12/11 07:46:34;;;;;;;0.93;0.75;;;18.30;48.00;;;;;;4998279;28;20231;-80
2023/12/11 07:49:02;;;;;;;1.17;0.90;;;18.30;48.10;;;;;;5014325;28;20240;-80
2023/12/11 07:51:29;;;;;;;0.98;0.85;;;18.30;48.00;;;;;;4998169;28;20197;-80
2023/12/11 07:53:58;;;;;;;0.88;0.80;;;18.30;48.60;;;;;;5014294;28;20656;-80
2023/12/11 07:56:26;;;;;;;1.20;0.65;;;18.30;48.00;;;;;;5015006;28;20221;-80
2023/12/11 07:58:53;;;;;;;0.95;0.95;;;18.30;48.00;;;;;;5014026;28;20196;-80
2023/12/11 08:01:21;;;;;;;1.02;0.82;;;18.30;48.00;;;;;;5014121;28;20207;-80
2023/12/11 08:03:48;;;;;;;1.60;0.80;;;18.40;48.70;;;;;;5014663;28;20255;-80
2023/12/11 08:06:15;;;;;;;0.90;0.70;;;18.30;48.00;;;;;;5014149;28;20311;-80
2023/12/11 08:08:43;;;;;;;0.93;0.93;;;18.40;48.10;;;;;;5013396;28;20217;-81
2023/12/11 08:11:18;;;;;;;0.82;0.80;;;18.40;48.10;;;;;;4996997;28;20196;-80
2023/12/11 08:13:45;;;;;;;0.90;0.90;;;18.40;47.90;;;;;;5013452;28;20231;-80
2023/12/11 08:16:13;;;;;;;1.35;0.60;;;18.40;47.90;;;;;;5013453;28;20247;-80
2023/12/11 08:18:41;;;;;;;1.15;0.88;;;18.40;48.00;;;;;;5013552;28;20284;-80
2023/12/11 08:21:08;;;;;;;0.75;0.73;;;18.40;47.90;;;;;;5013692;28;20242;-80
2023/12/11 08:23:36;;;;;;;1.42;0.88;;;18.50;48.10;;;;;;5013772;28;20228;-80
2023/12/11 08:26:03;;;;;;;1.50;1.10;;;18.50;47.90;;;;;;5014855;28;20720;-81
2023/12/11 08:28:32;;;;;;;2.78;1.10;;;18.50;48.40;;;;;;4997271;28;20216;-80
2023/12/11 08:30:59;;;;;;;1.52;0.90;;;18.60;48.70;;;;;;5015241;28;20224;-81
2023/12/11 08:33:26;;;;;;;2.10;1.20;;;18.60;48.50;;;;;;5038301;28;20177;-79
2023/12/11 08:35:53;;;;;;;1.60;1.50;;;18.60;48.80;;;;;;5004965;28;20212;-80
2023/12/11 08:38:22;;;;;;;1.70;1.60;;;18.60;49.10;;;;;;5021889;28;20560;-80
2023/12/11 08:40:49;;;;;;;3.33;1.48;;;18.60;49.40;;;;;;4997318;28;20201;-80
2023/12/11 08:43:17;;;;;;;2.10;1.60;;;18.60;50.10;;;;;;5012841;28;20567;-80
2023/12/11 08:45:45;;;;;;;2.25;1.42;;;18.60;50.60;;;;;;5013719;28;20248;-80
2023/12/11 08:48:12;;;;;;;2.47;1.20;;;18.70;50.50;;;;;;5015274;28;20245;-80
2023/12/11 08:50:40;;;;;;;1.92;1.20;;;18.70;50.60;;;;;;5015781;28;20263;-80
2023/12/11 08:53:07;;;;;;;1.23;1.00;;;18.70;50.80;;;;;;5017203;28;20192;-80
2023/12/11 08:55:35;;;;;;;1.55;1.00;;;18.70;50.70;;;;;;5015665;28;20295;-81
2023/12/11 08:58:02;;;;;;;1.00;1.00;;;18.80;50.90;;;;;;5016090;28;20217;-80
2023/12/11 09:00:29;;;;;;;1.42;1.02;;;18.70;51.30;;;;;;5015208;28;20726;-80
2023/12/11 09:02:58;;;;;;;1.10;0.98;;;18.80;50.90;;;;;;5016188;28;20271;-80
2023/12/11 09:05:26;;;;;;;3.80;1.05;;;18.80;50.80;;;;;;5014940;28;20232;-80
2023/12/11 09:07:55;;;;;;;1.10;1.00;;;18.90;51.50;;;;;;5014694;28;20227;-81
2023/12/11 09:10:22;;;;;;;2.67;1.20;;;18.90;50.80;;;;;;5014832;28;20224;-81
2023/12/11 09:12:49;;;;;;;1.85;0.85;;;18.90;50.80;;;;;;5015090;28;20320;-81
2023/12/11 09:15:17;;;;;;;1.00;0.90;;;19.00;50.70;;;;;;5018754;28;20686;-80
2023/12/11 09:17:44;;;;;;;1.27;0.85;;;19.00;50.70;;;;;;5022627;28;20263;-81
2023/12/11 09:20:13;;;;;;;1.30;0.80;;;19.00;50.90;;;;;;5026818;28;20220;-81
2023/12/11 09:22:41;;;;;;;0.63;0.63;;;19.10;50.70;;;;;;5029382;28;20201;-81
2023/12/11 09:25:08;;;;;;;2.22;0.90;;;19.10;50.40;;;;;;5028036;28;20280;-81
2023/12/11 09:27:35;;;;;;;1.27;0.77;;;19.10;50.30;;;;;;5020262;28;20213;-80
2023/12/11 09:30:02;;;;;;;1.33;1.00;;;19.10;50.40;;;;;;5019356;28;20296;-80
2023/12/11 09:32:29;;;;;;;4.90;0.93;;;19.20;50.50;;;;;;5017500;28;20200;-80
2023/12/11 09:34:56;;;;;;;2.88;1.00;;;19.10;50.40;;;;;;5017330;28;20699;-80
2023/12/11 09:37:25;;;;;;;1.13;1.02;;;19.10;50.30;;;;;;5016716;28;20223;-80
2023/12/11 09:39:52;;;;;;;1.20;1.05;;;19.10;50.10;;;;;;5017136;28;20232;-79
2023/12/11 09:42:19;;;;;;;1.55;1.00;;;19.20;50.00;;;;;;5016784;28;20315;-80
2023/12/11 09:44:48;;;;;;;1.25;0.77;;;19.10;49.90;;;;;;5021845;28;20212;-80
2023/12/11 09:47:17;;;;;;;2.47;1.10;;;19.20;50.20;;;;;;5025967;28;20238;-80
2023/12/11 09:49:45;;;;;;;0.93;0.93;;;19.10;49.90;;;;;;5005211;28;20239;-80
2023/12/11 09:52:13;;;;;;;0.77;0.75;;;19.20;49.40;;;;;;5003743;28;20201;-80
2023/12/11 09:54:41;;;;;;;1.35;0.80;;;19.20;49.40;;;;;;5020231;28;20224;-80
2023/12/11 09:57:10;;;;;;;0.90;0.82;;;19.20;49.30;;;;;;5019649;28;20228;-80
2023/12/11 09:59:37;;;;;;;0.90;0.90;;;19.20;49.20;;;;;;5019867;28;20261;-80
2023/12/11 10:02:05;;;;;;;1.67;0.80;;;19.20;48.90;;;;;;5020959;28;20231;-81
2023/12/11 10:04:32;;;;;;;1.45;1.10;;;19.20;49.00;;;;;;5019450;28;20615;-81
2023/12/11 10:06:59;;;;;;;1.02;0.93;;;19.30;48.90;;;;;;5019159;28;20228;-81
2023/12/11 10:09:29;;;;;;;0.90;0.80;;;19.20;48.90;;;;;;5019111;28;20315;-81
2023/12/11 10:12:00;;;;;;;0.80;0.77;;;19.20;48.70;;;;;;4986573;28;20207;-81
2023/12/11 10:14:29;;;;;;;1.25;0.80;;;19.30;48.80;;;;;;5019613;28;20577;-81
2023/12/11 10:16:57;;;;;;;1.08;0.77;;;19.30;48.70;;;;;;5019281;28;20274;-82
2023/12/11 10:19:33;;;;;;;1.38;1.10;;;19.30;48.60;;;;;;5018437;28;20627;-82
2023/12/11 10:22:01;;;;;;;1.38;1.05;;;19.40;48.70;;;;;;5002405;28;20196;-82
2023/12/11 10:24:29;;;;;;;0.95;0.85;;;19.40;48.50;;;;;;5018351;28;20200;-82
2023/12/11 10:26:56;;;;;;;1.23;0.90;;;19.50;48.40;;;;;;5017148;28;20293;-82
2023/12/11 10:29:26;;;;;;;0.80;0.80;;;19.50;48.20;;;;;;5017494;28;20212;-82
2023/12/11 10:31:54;;;;;;;2.05;1.00;;;19.50;48.10;;;;;;5018256;28;20228;-82
2023/12/11 10:34:39;;;;;;;2.25;1.00;;;19.60;48.10;;;;;;5024029;28;20193;-81
2023/12/11 10:37:06;;;;;;;1.17;0.90;;;19.60;48.00;;;;;;5034233;28;20225;-81
2023/12/11 10:39:34;;;;;;;0.73;0.70;;;19.70;47.90;;;;;;5012923;28;20197;-82
2023/12/11 10:42:12;;;;;;;0.98;0.80;;;19.70;47.80;;;;;;5020924;28;20193;-82
2023/12/11 10:44:41;;;;;;;1.92;0.98;;;19.70;47.70;;;;;;5016415;28;20192;-80
2023/12/11 10:47:09;;;;;;;3.88;1.00;;;19.80;47.70;;;;;;5016297;28;20648;-82
2023/12/11 10:49:36;;;;;;;1.52;0.90;;;19.80;47.60;;;;;;5017575;28;20225;-82
2023/12/11 10:52:03;;;;;;;1.40;1.02;;;19.80;47.60;;;;;;5001903;28;20197;-81
2023/12/11 10:54:30;;;;;;;0.95;0.93;;;19.80;47.50;;;;;;5017710;28;20200;-81
2023/12/11 10:56:59;;;;;;;1.08;0.90;;;19.80;47.50;;;;;;5017458;28;20248;-82
2023/12/11 10:59:26;;;;;;;1.25;0.90;;;19.80;47.40;;;;;;5016022;28;20579;-82
2023/12/11 11:01:55;;;;;;;1.00;0.90;;;19.80;47.40;;;;;;5022285;28;20197;-81
2023/12/11 11:04:22;;;;;;;1.10;0.82;;;19.80;47.40;;;;;;5020277;28;20205;-82
2023/12/11 11:06:52;;;;;;;1.08;0.98;;;19.80;47.40;;;;;;5019906;28;20216;-82
2023/12/11 11:09:24;;;;;;;0.80;0.80;;;19.80;47.40;;;;;;5019710;28;20224;-82
2023/12/11 11:11:54;;;;;;;0.70;0.70;;;19.80;47.40;;;;;;5019570;28;20304;-82
2023/12/11 11:14:38;;;;;;;1.48;0.90;;;19.80;47.50;;;;;;5019469;28;20622;-82
2023/12/11 11:17:06;;;;;;;1.08;0.93;;;19.80;47.60;;;;;;5018888;28;20719;-81
2023/12/11 11:19:35;;;;;;;1.17;1.00;;;19.80;47.60;;;;;;5002976;28;20196;-82
2023/12/11 11:22:20;;;;;;;2.30;0.93;;;19.80;47.50;;;;;;5019631;28;20200;-82
2023/12/11 11:24:48;;;;;;;1.02;0.88;;;19.80;47.50;;;;;;5019563;28;20219;-82
2023/12/11 11:27:40;;;;;;;1.50;1.10;;;19.80;47.50;;;;;;5018704;28;20228;-82
2023/12/11 11:30:10;;;;;;;1.20;0.80;;;19.90;47.50;;;;;;5016195;28;20221;-82
2023/12/11 11:32:54;;;;;;;1.02;0.93;;;19.80;47.50;;;;;;5018989;28;20247;-82
2023/12/11 11:35:49;;;;;;;1.33;1.05;;;19.90;47.50;;;;;;5017964;28;20258;-82
2023/12/11 11:38:17;;;;;;;1.98;0.90;;;19.90;47.50;;;;;;5017453;28;20259;-81
2023/12/11 11:40:45;;;;;;;2.95;1.50;;;19.90;47.40;;;;;;5017664;28;20669;-81
2023/12/11 11:43:13;;;;;;;2.10;1.20;;;19.90;49.60;;;;;;5017406;28;20201;-82
2023/12/11 11:45:40;;;;;;;1.75;1.17;;;20.00;52.00;;;;;;5016644;28;20232;-81
2023/12/11 11:48:09;;;;;;;1.50;1.27;;;20.00;51.60;;;;;;5016801;28;20231;-81
2023/12/11 11:50:36;;;;;;;1.05;0.90;;;20.00;51.40;;;;;;5015980;28;20216;-81
2023/12/11 11:53:07;;;;;;;1.00;0.90;;;20.00;50.90;;;;;;5017042;28;20233;-81
2023/12/11 11:55:38;;;;;;;2.47;1.25;;;20.10;50.50;;;;;;5015890;28;20258;-81
2023/12/11 11:58:12;;;;;;;1.40;1.00;;;20.10;50.30;;;;;;5015704;28;20558;-81
2023/12/11 12:00:38;;;;;;;1.60;0.95;;;20.10;49.80;;;;;;5016345;28;20196;-81
2023/12/11 12:03:08;;;;;;;0.95;0.80;;;20.10;49.60;;;;;;5014953;28;20200;-81
2023/12/11 12:05:36;;;;;;;1.73;0.98;;;20.00;49.30;;;;;;5014903;28;20224;-82
2023/12/11 12:08:06;;;;;;;1.25;0.95;;;20.10;49.10;;;;;;5014167;28;20205;-82
2023/12/11 12:10:46;;;;;;;1.50;0.73;;;20.10;49.10;;;;;;5014459;28;20224;-82
2023/12/11 12:13:13;;;;;;;1.65;0.90;;;20.00;49.10;;;;;;5014721;28;20185;-81
2023/12/11 12:15:43;;;;;;;1.70;0.93;;;20.10;48.80;;;;;;5013586;28;20201;-81
2023/12/11 12:18:09;;;;;;;1.10;0.90;;;20.00;48.80;;;;;;5034119;28;20189;-81
2023/12/11 12:20:38;;;;;;;1.45;1.13;;;20.10;48.70;;;;;;5022120;28;20227;-81
2023/12/11 12:23:05;;;;;;;2.15;1.10;;;20.10;48.50;;;;;;5034252;28;20317;-80
2023/12/11 12:25:32;;;;;;;1.65;1.05;;;20.10;48.50;;;;;;5016773;28;20201;-80
2023/12/11 12:28:04;;;;;;;1.55;1.00;;;20.00;48.50;;;;;;5016516;28;20201;-80
2023/12/11 12:30:31;;;;;;;1.08;0.98;;;20.10;48.40;;;;;;5015848;28;20213;-80
2023/12/11 12:32:58;;;;;;;1.67;1.10;;;20.10;47.90;;;;;;5015803;28;20197;-80
2023/12/11 12:35:25;;;;;;;1.35;0.95;;;20.10;47.80;;;;;;5015385;28;20247;-80
2023/12/11 12:37:53;;;;;;;1.13;0.90;;;20.10;48.00;;;;;;5015098;28;20197;-81
2023/12/11 12:40:20;;;;;;;1.85;1.13;;;20.20;48.40;;;;;;5015079;28;20668;-81
2023/12/11 12:42:47;;;;;;;1.75;0.90;;;20.20;48.20;;;;;;5014701;28;20212;-80
2023/12/11 12:45:24;;;;;;;1.25;0.90;;;20.20;48.30;;;;;;4997233;28;20280;-80
2023/12/11 12:47:51;;;;;;;1.80;1.00;;;20.20;48.10;;;;;;5013499;28;20647;-80
2023/12/11 12:50:20;;;;;;;0.85;0.85;;;20.20;48.50;;;;;;4996947;28;20213;-80
2023/12/11 12:52:46;;;;;;;1.30;0.90;;;20.30;48.60;;;;;;4996551;28;20196;-80